Time;durP1;ratioP1;P1;durP2;ratioP2;P2;SDS_P1;SDS_P2;PMS_P1;PMS_P2;Temp;Humidity;BMP_temperature;BMP_pressure;BME280_temperature;BME280_humidity;BME280_pressure;Samples;Min_cycle;Max_cycle;Signal;HPM_P1;HPM_P2
2022/02/12 00:02:05;;;;;;;14.23;7.43;;;;;;;1.85;78.53;102126.94;5035079;28;20438;-80
2022/02/12 00:04:30;;;;;;;14.23;7.50;;;;;;;1.78;79.37;102127.69;5036192;28;20766;-80
2022/02/12 00:06:55;;;;;;;11.80;6.73;;;;;;;1.77;79.16;102126.00;5045976;28;20429;-80
2022/02/12 00:09:21;;;;;;;11.17;6.93;;;;;;;1.86;79.46;102125.97;5032230;28;20399;-80
2022/02/12 00:11:49;;;;;;;9.93;6.60;;;;;;;1.96;78.22;102117.88;5033504;28;20415;-80
2022/02/12 00:14:14;;;;;;;13.38;6.85;;;;;;;2.02;78.21;102107.44;5045582;28;20390;-81
2022/02/12 00:16:39;;;;;;;15.13;7.30;;;;;;;1.99;78.36;102104.22;5044922;28;20851;-80
2022/02/12 00:19:05;;;;;;;14.60;7.60;;;;;;;1.87;78.98;102108.94;5033240;28;20469;-80
2022/02/12 00:21:30;;;;;;;17.57;7.30;;;;;;;1.85;79.36;102104.72;5040420;28;20746;-81
2022/02/12 00:23:55;;;;;;;14.23;7.73;;;;;;;1.89;79.60;102108.78;5049388;28;20395;-80
2022/02/12 00:26:22;;;;;;;14.00;7.73;;;;;;;1.95;78.88;102100.16;5039249;28;20398;-81
2022/02/12 00:28:47;;;;;;;14.13;7.75;;;;;;;1.98;78.75;102097.19;5032387;28;20758;-80
2022/02/12 00:31:13;;;;;;;19.40;9.03;;;;;;;2.00;78.99;102104.09;5033821;28;20407;-80
2022/02/12 00:33:38;;;;;;;16.17;9.20;;;;;;;1.91;79.09;102096.13;5033998;28;20410;-80
2022/02/12 00:36:03;;;;;;;18.67;9.37;;;;;;;1.83;79.05;102096.84;5033346;28;20962;-80
2022/02/12 00:38:28;;;;;;;15.17;9.47;;;;;;;1.84;79.83;102101.22;5049575;28;20389;-80
2022/02/12 00:40:54;;;;;;;16.00;9.13;;;;;;;1.92;79.57;102106.66;5033272;28;20458;-80
2022/02/12 00:43:19;;;;;;;15.77;9.80;;;;;;;1.94;79.07;102101.16;5032392;28;20476;-80
2022/02/12 00:45:46;;;;;;;21.23;10.53;;;;;;;1.99;78.31;102101.53;5029640;28;20430;-80
2022/02/12 00:48:12;;;;;;;21.65;10.70;;;;;;;1.99;78.08;102109.56;5045399;28;20393;-80
2022/02/12 00:50:37;;;;;;;20.80;10.00;;;;;;;1.96;78.29;102104.53;5032092;28;20429;-80
2022/02/12 00:53:02;;;;;;;17.50;9.80;;;;;;;1.88;78.32;102091.88;5039519;28;20435;-80
2022/02/12 00:55:27;;;;;;;19.43;9.90;;;;;;;1.85;77.97;102089.50;5041648;28;20410;-80
2022/02/12 00:57:53;;;;;;;16.27;9.83;;;;;;;1.82;77.87;102089.81;5033016;28;20406;-80
2022/02/12 01:00:18;;;;;;;18.37;9.00;;;;;;;1.82;78.47;102081.78;5034810;28;20406;-80
2022/02/12 01:02:43;;;;;;;21.27;10.70;;;;;;;1.85;78.20;102077.97;5042143;28;20403;-80
2022/02/12 01:05:09;;;;;;;24.35;12.73;;;;;;;1.89;78.74;102082.03;5032226;28;20387;-81
2022/02/12 01:07:34;;;;;;;25.90;13.77;;;;;;;1.89;78.87;102080.22;5039382;28;20878;-80
2022/02/12 01:09:59;;;;;;;22.17;11.93;;;;;;;1.89;78.83;102088.22;5035145;28;20458;-80
2022/02/12 01:12:25;;;;;;;20.83;11.67;;;;;;;1.89;78.74;102090.06;5037543;28;20960;-80
2022/02/12 01:14:53;;;;;;;17.80;10.45;;;;;;;1.85;79.22;102086.00;5050336;28;20398;-80
2022/02/12 01:17:18;;;;;;;17.52;9.23;;;;;;;1.65;78.09;102087.09;5035300;28;20894;-80
2022/02/12 01:19:44;;;;;;;20.27;9.90;;;;;;;1.50;77.73;102092.06;5032456;28;20409;-80
2022/02/12 01:22:09;;;;;;;15.83;9.43;;;;;;;1.41;77.69;102087.63;5039190;28;20850;-80
2022/02/12 01:24:34;;;;;;;17.03;9.00;;;;;;;1.31;78.51;102092.13;5031831;28;20399;-80
2022/02/12 01:27:00;;;;;;;17.13;9.37;;;;;;;1.36;78.77;102084.50;5031882;28;20407;-80
2022/02/12 01:29:25;;;;;;;16.00;9.60;;;;;;;1.42;78.13;102092.78;5047735;28;20438;-80
2022/02/12 01:31:51;;;;;;;16.33;9.70;;;;;;;1.32;77.51;102091.13;5035966;28;20461;-80
2022/02/12 01:34:16;;;;;;;23.83;10.53;;;;;;;1.33;77.40;102085.66;5031970;28;20579;-81
2022/02/12 01:36:41;;;;;;;18.93;10.43;;;;;;;1.35;77.98;102086.34;5037352;28;20510;-80
2022/02/12 01:39:06;;;;;;;18.40;9.87;;;;;;;1.36;78.19;102081.84;5032237;28;20395;-80
2022/02/12 01:41:32;;;;;;;16.60;10.30;;;;;;;1.34;78.04;102083.84;5047220;28;20418;-80
2022/02/12 01:44:09;;;;;;;19.80;9.82;;;;;;;1.33;78.05;102076.81;5046223;28;20422;-80
2022/02/12 01:46:35;;;;;;;18.23;9.05;;;;;;;1.33;78.09;102079.47;5034905;28;20411;-80
2022/02/12 01:49:01;;;;;;;21.45;10.27;;;;;;;1.33;78.05;102077.66;5031983;28;20409;-80
2022/02/12 01:51:26;;;;;;;17.63;9.52;;;;;;;1.34;77.74;102073.16;5047990;28;20871;-79
2022/02/12 01:53:53;;;;;;;21.10;11.13;;;;;;;1.31;78.17;102076.97;5031004;28;20413;-79
2022/02/12 01:56:19;;;;;;;15.43;9.43;;;;;;;1.32;78.02;102064.41;5030079;28;20411;-80
2022/02/12 01:58:44;;;;;;;19.10;9.83;;;;;;;1.29;78.21;102059.38;5039395;28;20809;-79
2022/02/12 02:01:10;;;;;;;17.83;9.93;;;;;;;1.29;77.80;102054.88;5038087;28;20424;-79
2022/02/12 02:03:35;;;;;;;16.30;10.47;;;;;;;1.29;78.14;102041.53;5031580;28;20418;-79
2022/02/12 02:06:01;;;;;;;17.70;10.17;;;;;;;1.32;78.87;102041.22;5031204;28;20407;-79
2022/02/12 02:08:26;;;;;;;17.20;10.77;;;;;;;1.36;78.97;102033.78;5031695;28;20498;-79
2022/02/12 02:10:53;;;;;;;17.92;10.13;;;;;;;1.39;79.04;102033.47;5047845;28;20451;-79
2022/02/12 02:13:23;;;;;;;16.42;10.18;;;;;;;1.39;79.12;102036.16;5041381;28;20411;-79
2022/02/12 02:15:49;;;;;;;20.85;10.55;;;;;;;1.31;79.41;102036.06;5049297;28;20788;-79
2022/02/12 02:18:14;;;;;;;19.00;11.07;;;;;;;1.22;80.02;102023.59;5051476;28;20444;-79
2022/02/12 02:20:40;;;;;;;18.93;11.17;;;;;;;1.10;79.85;102030.06;5035045;28;20443;-79
2022/02/12 02:23:05;;;;;;;21.30;11.10;;;;;;;1.02;80.29;102022.81;5046320;28;20415;-79
2022/02/12 02:25:30;;;;;;;19.23;10.93;;;;;;;1.01;81.13;102024.63;5030394;28;20414;-80
2022/02/12 02:27:55;;;;;;;20.00;10.57;;;;;;;1.10;80.49;102024.72;5036871;28;20835;-79
2022/02/12 02:30:22;;;;;;;19.63;10.60;;;;;;;1.17;80.32;102016.00;5049626;28;20398;-79
2022/02/12 02:32:48;;;;;;;20.48;10.90;;;;;;;1.06;80.63;102026.84;5048572;28;20399;-79
2022/02/12 02:35:16;;;;;;;20.87;11.03;;;;;;;1.00;80.73;102014.94;5037170;28;20794;-79
2022/02/12 02:37:42;;;;;;;18.92;11.50;;;;;;;1.01;80.60;102015.78;5031339;28;20423;-79
2022/02/12 02:40:16;;;;;;;21.08;11.35;;;;;;;0.99;81.01;102018.56;5031266;28;20403;-80
2022/02/12 02:42:46;;;;;;;19.63;10.77;;;;;;;0.97;80.83;102017.03;5047386;28;20492;-79
2022/02/12 02:45:13;;;;;;;17.13;10.53;;;;;;;1.02;80.70;102020.94;5033770;28;20421;-79
2022/02/12 02:47:42;;;;;;;20.13;10.48;;;;;;;1.08;81.06;102019.56;5037686;28;20450;-79
2022/02/12 02:58:23;;;;;;;19.10;9.80;;;;;;;0.68;81.80;102003.78;5046552;28;20463;-79
2022/02/12 03:00:48;;;;;;;19.43;9.93;;;;;;;0.80;81.91;102005.28;5041574;28;20418;-79
2022/02/12 03:03:13;;;;;;;19.07;9.80;;;;;;;0.84;81.11;101996.00;5030012;28;20870;-79
2022/02/12 03:05:39;;;;;;;16.50;9.40;;;;;;;0.84;81.68;102000.50;5031158;28;20930;-79
2022/02/12 03:08:04;;;;;;;16.60;8.90;;;;;;;0.93;81.13;101992.47;5046620;28;20476;-79
2022/02/12 03:10:29;;;;;;;17.30;9.07;;;;;;;1.03;80.54;102003.97;5031165;28;20813;-79
2022/02/12 03:12:54;;;;;;;16.73;8.63;;;;;;;1.05;80.38;101993.97;5040410;28;20483;-79
2022/02/12 03:15:21;;;;;;;18.23;9.17;;;;;;;1.13;80.15;101989.72;5049850;28;20424;-79
2022/02/12 03:17:46;;;;;;;19.50;9.00;;;;;;;1.07;80.06;101990.31;5037182;28;20746;-79
2022/02/12 03:20:11;;;;;;;21.40;9.03;;;;;;;1.10;80.03;101985.53;5032072;28;20417;-79
2022/02/12 03:22:36;;;;;;;14.43;8.73;;;;;;;1.11;80.15;101991.72;5042717;28;20424;-79
2022/02/12 03:25:02;;;;;;;19.60;8.73;;;;;;;1.09;80.00;101985.69;5042467;28;20914;-79
2022/02/12 03:27:27;;;;;;;14.07;8.60;;;;;;;1.09;79.28;101983.03;5034496;28;20407;-79
2022/02/12 03:29:52;;;;;;;16.03;9.10;;;;;;;1.05;79.90;101988.63;5038390;28;20864;-79
2022/02/12 03:32:18;;;;;;;20.70;9.17;;;;;;;1.07;79.62;101982.31;5047362;28;20414;-79
2022/02/12 03:34:43;;;;;;;15.57;8.37;;;;;;;1.04;80.20;101976.28;5045273;28;20424;-79
2022/02/12 03:37:08;;;;;;;16.30;9.07;;;;;;;1.05;79.66;101977.13;5038738;28;20453;-79
2022/02/12 03:39:34;;;;;;;14.00;8.30;;;;;;;1.05;80.00;101975.28;5034105;28;20464;-79
2022/02/12 03:41:59;;;;;;;16.13;8.90;;;;;;;1.08;79.34;101963.50;5040303;28;20413;-79
2022/02/12 03:44:24;;;;;;;16.07;8.47;;;;;;;1.11;79.68;101965.00;5044492;28;20481;-79
2022/02/12 03:46:50;;;;;;;13.90;7.50;;;;;;;1.11;79.90;101962.34;5047361;28;20492;-79
2022/02/12 03:49:15;;;;;;;16.25;8.98;;;;;;;1.10;79.46;101964.16;5040224;28;20462;-79
2022/02/12 03:51:40;;;;;;;17.27;8.77;;;;;;;1.10;79.96;101957.97;5035058;28;20504;-79
2022/02/12 03:54:05;;;;;;;13.30;8.50;;;;;;;1.10;79.34;101957.97;5044850;28;20457;-79
2022/02/12 03:56:31;;;;;;;14.87;8.17;;;;;;;1.08;79.54;101950.13;5033718;28;20928;-79
2022/02/12 03:58:56;;;;;;;17.50;9.23;;;;;;;0.96;79.48;101961.97;5033674;28;20403;-79
2022/02/12 04:01:21;;;;;;;12.70;8.43;;;;;;;0.92;80.33;101952.59;5037597;28;20533;-79
2022/02/12 04:03:47;;;;;;;15.30;8.37;;;;;;;0.92;80.13;101969.41;5033511;28;20399;-79
2022/02/12 04:06:12;;;;;;;19.63;9.32;;;;;;;0.88;79.99;101949.38;5033278;28;20411;-79
2022/02/12 04:08:38;;;;;;;15.73;8.80;;;;;;;0.75;80.52;101961.34;5048774;28;20381;-79
2022/02/12 04:11:03;;;;;;;16.13;9.03;;;;;;;0.79;80.23;101960.09;5035011;28;20471;-79
2022/02/12 04:13:32;;;;;;;15.67;8.40;;;;;;;0.70;79.98;101955.59;5039890;28;20887;-79
2022/02/12 04:15:57;;;;;;;13.40;8.07;;;;;;;0.77;80.30;101946.03;5043452;28;20436;-79
2022/02/12 04:18:22;;;;;;;15.57;9.43;;;;;;;0.71;79.96;101941.28;5034243;28;20742;-78
2022/02/12 04:20:47;;;;;;;18.57;8.50;;;;;;;0.74;79.86;101943.66;5049330;28;20451;-79
2022/02/12 04:23:13;;;;;;;20.00;8.88;;;;;;;0.74;79.67;101940.97;5048385;28;20752;-79
2022/02/12 04:25:38;;;;;;;16.25;9.10;;;;;;;0.71;79.92;101938.59;5047234;28;20443;-79
2022/02/12 04:28:08;;;;;;;14.43;8.70;;;;;;;0.68;79.87;101944.22;5040079;28;20816;-79
2022/02/12 04:30:35;;;;;;;17.77;9.25;;;;;;;0.64;79.72;101940.16;5038762;28;20832;-80
2022/02/12 04:33:01;;;;;;;16.80;9.03;;;;;;;0.57;79.79;101933.72;5038758;28;20532;-80
2022/02/12 04:35:26;;;;;;;18.43;8.50;;;;;;;0.50;79.84;101934.31;5044322;28;20925;-79
2022/02/12 04:37:51;;;;;;;20.23;9.23;;;;;;;0.46;80.54;101932.91;5035645;28;20414;-79
2022/02/12 04:40:17;;;;;;;14.23;8.07;;;;;;;0.30;80.47;101943.31;5037036;28;20419;-79
2022/02/12 04:42:43;;;;;;;16.77;9.43;;;;;;;0.31;80.75;101937.00;5036912;28;20401;-79
2022/02/12 04:45:09;;;;;;;14.63;9.05;;;;;;;0.33;80.71;101931.53;5045433;28;20395;-79
2022/02/12 04:47:36;;;;;;;19.03;9.23;;;;;;;0.39;80.62;101920.31;5031720;28;20453;-79
2022/02/12 04:50:03;;;;;;;16.33;8.73;;;;;;;0.40;80.62;101922.81;5036166;28;20445;-79
2022/02/12 04:52:28;;;;;;;18.15;9.88;;;;;;;0.38;80.33;101930.13;5029175;28;20826;-79
2022/02/12 04:54:53;;;;;;;19.43;10.70;;;;;;;0.48;80.21;101927.44;5032556;28;20501;-79
2022/02/12 04:57:19;;;;;;;18.83;9.57;;;;;;;0.38;79.92;101927.47;5043584;28;20377;-79
2022/02/12 04:59:44;;;;;;;16.70;8.90;;;;;;;0.43;80.11;101913.66;5046180;28;20404;-79
2022/02/12 05:02:10;;;;;;;16.13;9.23;;;;;;;0.48;80.20;101919.44;5042341;28;20490;-79
2022/02/12 05:04:35;;;;;;;16.40;10.20;;;;;;;0.51;80.36;101914.66;5046958;28;20478;-79
2022/02/12 05:07:00;;;;;;;15.53;9.43;;;;;;;0.55;80.04;101903.69;5031328;28;20433;-79
2022/02/12 05:09:26;;;;;;;15.65;9.63;;;;;;;0.42;79.67;101906.69;5039469;28;20399;-79
2022/02/12 05:11:51;;;;;;;17.50;9.88;;;;;;;0.35;80.44;101903.75;5033856;28;20457;-79
2022/02/12 05:14:18;;;;;;;18.90;9.70;;;;;;;0.34;79.88;101902.06;5032327;28;20452;-79
2022/02/12 05:16:44;;;;;;;16.02;10.27;;;;;;;0.26;80.63;101893.94;5040888;28;20405;-79
2022/02/12 05:19:09;;;;;;;21.80;10.82;;;;;;;0.25;80.01;101900.25;5040665;28;20402;-79
2022/02/12 05:21:34;;;;;;;17.27;9.93;;;;;;;0.32;80.52;101895.19;5047078;28;20778;-79
2022/02/12 05:24:01;;;;;;;19.50;11.87;;;;;;;0.34;80.10;101887.88;5052562;28;20389;-79
2022/02/12 05:26:27;;;;;;;20.80;11.38;;;;;;;0.35;79.86;101889.56;5044483;28;20387;-80
2022/02/12 05:28:52;;;;;;;19.45;10.18;;;;;;;0.37;79.65;101868.91;5040242;28;20399;-79
2022/02/12 05:31:17;;;;;;;23.42;11.40;;;;;;;0.36;79.80;101884.06;5051767;28;20397;-79
2022/02/12 05:33:43;;;;;;;20.00;10.63;;;;;;;0.34;80.05;101867.38;5033111;28;20391;-79
2022/02/12 05:36:10;;;;;;;17.33;10.50;;;;;;;0.32;80.13;101871.19;5031589;28;20414;-79
2022/02/12 05:38:39;;;;;;;18.88;10.75;;;;;;;0.30;79.96;101871.31;5030582;28;20874;-79
2022/02/12 05:41:04;;;;;;;17.23;11.15;;;;;;;0.30;79.71;101866.00;5046168;28;20514;-79
2022/02/12 05:43:31;;;;;;;18.58;11.40;;;;;;;0.32;79.64;101868.53;5033214;28;20943;-79
2022/02/12 05:45:57;;;;;;;22.48;11.93;;;;;;;0.32;79.81;101872.03;5039404;28;20393;-80
2022/02/12 05:48:22;;;;;;;20.00;11.47;;;;;;;0.18;79.68;101875.16;5040883;28;20406;-79
2022/02/12 05:50:47;;;;;;;16.63;10.75;;;;;;;0.17;80.00;101876.13;5031024;28;20419;-79
2022/02/12 05:53:12;;;;;;;20.50;10.47;;;;;;;0.19;80.43;101873.31;5031971;28;20411;-80
2022/02/12 05:55:38;;;;;;;20.03;10.23;;;;;;;0.22;79.92;101876.53;5035667;28;20410;-80
2022/02/12 05:58:03;;;;;;;24.73;12.27;;;;;;;0.23;80.02;101872.88;5036404;28;20894;-80
2022/02/12 06:00:28;;;;;;;19.52;11.60;;;;;;;0.19;79.72;101860.00;5046671;28;20769;-80
2022/02/12 06:02:54;;;;;;;23.20;12.30;;;;;;;0.20;79.62;101854.50;5048908;28;20393;-80
2022/02/12 06:05:20;;;;;;;18.40;11.43;;;;;;;0.20;79.92;101854.50;5036751;28;20407;-80
2022/02/12 06:07:45;;;;;;;24.52;12.38;;;;;;;0.20;79.69;101848.34;5038104;28;20465;-80
2022/02/12 06:10:11;;;;;;;21.73;12.63;;;;;;;0.23;79.85;101859.53;5038572;28;20739;-80
2022/02/12 06:12:37;;;;;;;23.00;12.07;;;;;;;0.26;80.09;101861.09;5032861;28;20498;-80
2022/02/12 06:15:03;;;;;;;22.25;12.30;;;;;;;0.19;80.35;101855.50;5040246;28;20474;-80
2022/02/12 06:17:28;;;;;;;23.35;12.50;;;;;;;0.17;80.36;101864.59;5034091;28;20407;-80
2022/02/12 06:19:54;;;;;;;20.73;12.20;;;;;;;0.10;80.62;101863.53;5037522;28;20770;-80
2022/02/12 06:22:19;;;;;;;22.47;12.47;;;;;;;0.13;80.35;101864.09;5040652;28;20397;-80
2022/02/12 06:24:44;;;;;;;27.53;12.00;;;;;;;0.04;80.01;101864.06;5033403;28;20414;-80
2022/02/12 06:27:10;;;;;;;20.17;11.80;;;;;;;-0.05;80.89;101866.63;5039790;28;20499;-80
2022/02/12 06:29:35;;;;;;;21.63;12.37;;;;;;;0.00;80.80;101861.69;5037484;28;20539;-80
2022/02/12 06:32:00;;;;;;;24.50;12.13;;;;;;;-0.07;80.84;101862.44;5038277;28;20414;-78
2022/02/12 06:34:26;;;;;;;16.63;11.70;;;;;;;-0.03;80.99;101859.31;5027073;28;20476;-80
2022/02/12 06:36:51;;;;;;;23.73;12.97;;;;;;;0.03;80.71;101860.59;5038604;28;20403;-80
2022/02/12 06:39:16;;;;;;;20.53;12.70;;;;;;;0.03;80.68;101860.59;5033019;28;20490;-79
2022/02/12 06:41:42;;;;;;;24.33;13.07;;;;;;;0.08;80.48;101857.47;5040312;28;20479;-79
2022/02/12 06:44:08;;;;;;;24.80;12.60;;;;;;;0.08;80.46;101858.31;5033167;28;20427;-80
2022/02/12 06:46:33;;;;;;;21.33;12.10;;;;;;;0.09;80.84;101854.69;5041218;28;20401;-79
2022/02/12 06:48:59;;;;;;;23.10;12.50;;;;;;;0.08;80.25;101855.66;5031179;28;20407;-79
2022/02/12 06:51:24;;;;;;;24.43;12.40;;;;;;;0.08;80.62;101852.16;5034372;28;20433;-79
2022/02/12 06:53:49;;;;;;;23.30;14.33;;;;;;;-0.01;80.53;101848.53;5036425;28;20446;-79
2022/02/12 06:56:14;;;;;;;22.10;13.37;;;;;;;0.04;80.31;101848.09;5051205;28;20393;-79
2022/02/12 06:58:40;;;;;;;20.07;12.13;;;;;;;0.09;80.06;101849.34;5039237;28;20407;-78
2022/02/12 07:01:05;;;;;;;24.00;12.10;;;;;;;0.12;80.73;101851.72;5040786;28;20913;-78
2022/02/12 07:03:30;;;;;;;19.07;13.03;;;;;;;0.13;80.46;101852.59;5048515;28;20432;-78
2022/02/12 07:05:55;;;;;;;22.80;13.00;;;;;;;0.14;80.72;101844.41;5051207;28;20493;-79
2022/02/12 07:08:21;;;;;;;23.73;13.73;;;;;;;0.04;80.52;101846.25;5054565;28;20390;-80
2022/02/12 07:10:46;;;;;;;23.20;13.77;;;;;;;-0.20;81.61;101848.56;5036963;28;20410;-78
2022/02/12 07:13:13;;;;;;;24.77;14.00;;;;;;;-0.33;82.21;101853.34;5045633;28;20397;-79
2022/02/12 07:15:39;;;;;;;24.70;15.10;;;;;;;-0.35;82.43;101841.97;5049549;28;20426;-78
2022/02/12 07:18:04;;;;;;;27.50;15.07;;;;;;;-0.37;83.12;101835.94;5034781;28;20475;-78
2022/02/12 07:20:30;;;;;;;29.23;15.73;;;;;;;-0.30;83.02;101837.91;5036667;28;20472;-78
2022/02/12 07:22:56;;;;;;;31.60;16.33;;;;;;;-0.28;83.26;101830.59;5042379;28;20399;-78
2022/02/12 07:25:21;;;;;;;30.38;16.85;;;;;;;-0.21;83.06;101829.06;5034990;28;20398;-77
2022/02/12 07:27:47;;;;;;;22.95;14.27;;;;;;;-0.18;82.91;101826.13;5050842;28;20402;-78
2022/02/12 07:30:14;;;;;;;25.38;14.82;;;;;;;-0.11;82.61;101827.22;5037383;28;20433;-77
2022/02/12 07:32:41;;;;;;;29.48;15.02;;;;;;;0.00;82.40;101826.25;5041126;28;20418;-77
2022/02/12 07:35:11;;;;;;;35.72;18.40;;;;;;;0.15;81.89;101824.78;5052972;28;20758;-77
2022/02/12 07:37:38;;;;;;;45.35;22.23;;;;;;;0.41;81.46;101823.16;5068322;28;20409;-77
2022/02/12 07:40:04;;;;;;;51.92;25.88;;;;;;;0.54;80.72;101828.16;5047107;28;20530;-78
2022/02/12 07:42:30;;;;;;;50.25;23.90;;;;;;;0.63;80.08;101839.75;5042672;28;20991;-77
2022/02/12 07:44:55;;;;;;;37.50;16.57;;;;;;;0.66;80.86;101834.97;5039481;28;20415;-77
2022/02/12 07:47:20;;;;;;;23.77;13.83;;;;;;;0.89;79.84;101836.28;5040058;28;20415;-78
2022/02/12 07:49:46;;;;;;;23.00;13.20;;;;;;;1.05;79.08;101825.78;5039893;28;20913;-78
2022/02/12 07:52:11;;;;;;;26.10;14.90;;;;;;;1.16;78.08;101823.88;5037405;28;20403;-78
2022/02/12 07:54:37;;;;;;;24.83;14.97;;;;;;;1.19;77.74;101823.59;5042976;28;20451;-77
2022/02/12 07:57:02;;;;;;;20.63;13.63;;;;;;;1.08;78.81;101813.13;5048585;28;20864;-77
2022/02/12 07:59:28;;;;;;;19.73;13.18;;;;;;;1.15;78.56;101819.56;5043108;28;20403;-77
2022/02/12 08:01:53;;;;;;;20.88;13.05;;;;;;;1.12;78.50;101826.03;5035680;28;20773;-77
2022/02/12 08:04:18;;;;;;;22.87;13.10;;;;;;;1.08;79.03;101829.16;5039831;28;20509;-77
2022/02/12 08:09:28;;;;;;;22.63;14.03;;;;;;;1.38;78.43;101826.16;5042057;28;21019;-77
2022/02/12 08:12:01;;;;;;;28.13;14.30;;;;;;;1.38;78.07;101824.28;5029529;28;20419;-79
2022/02/12 08:14:27;;;;;;;26.73;13.43;;;;;;;1.47;78.10;101823.41;5038905;28;20409;-80
2022/02/12 08:16:52;;;;;;;33.27;14.70;;;;;;;1.61;78.09;101821.19;5038918;28;20422;-77
2022/02/12 08:19:18;;;;;;;22.63;13.03;;;;;;;1.71;77.70;101827.28;5039130;28;20394;-77
2022/02/12 08:21:43;;;;;;;23.47;14.00;;;;;;;1.77;77.95;101814.13;5043888;28;20501;-77
2022/02/12 08:24:09;;;;;;;26.33;14.93;;;;;;;2.08;76.91;101823.38;5034694;28;20451;-78
2022/02/12 08:26:34;;;;;;;24.95;14.70;;;;;;;2.43;75.72;101829.63;5036398;28;20387;-78
2022/02/12 08:29:00;;;;;;;27.70;14.40;;;;;;;3.06;74.01;101825.53;5033432;28;20437;-77
2022/02/12 08:31:25;;;;;;;23.65;13.30;;;;;;;3.60;71.83;101824.16;5046186;28;20397;-77
2022/02/12 08:33:51;;;;;;;24.70;12.53;;;;;;;3.54;71.01;101829.34;5052221;28;20424;-78
2022/02/12 08:36:16;;;;;;;24.00;12.40;;;;;;;3.34;72.02;101834.16;5036258;28;20410;-77
2022/02/12 08:38:41;;;;;;;20.73;11.50;;;;;;;3.03;73.05;101825.88;5034166;28;20407;-77
2022/02/12 08:41:07;;;;;;;20.10;11.67;;;;;;;2.91;73.54;101826.34;5034894;28;21067;-78
2022/02/12 08:43:32;;;;;;;20.40;11.90;;;;;;;2.74;74.63;101820.06;5038718;28;20422;-78
2022/02/12 08:45:57;;;;;;;19.80;11.57;;;;;;;2.85;73.99;101818.94;5041942;28;20497;-78
2022/02/12 08:48:32;;;;;;;22.23;12.23;;;;;;;2.95;74.50;101815.16;5033793;28;20862;-77
2022/02/12 08:50:58;;;;;;;20.77;12.38;;;;;;;2.94;74.67;101821.50;5040473;28;20424;-77
2022/02/12 08:53:23;;;;;;;20.80;11.45;;;;;;;2.88;74.62;101821.31;5040503;28;20829;-78
2022/02/12 08:55:48;;;;;;;18.50;10.60;;;;;;;3.11;74.14;101811.66;5048488;28;20422;-78
2022/02/12 08:58:14;;;;;;;19.60;11.23;;;;;;;3.47;73.59;101813.09;5036420;28;20478;-77
2022/02/12 09:00:39;;;;;;;16.93;10.03;;;;;;;3.93;71.75;101808.91;5051059;28;20424;-78
2022/02/12 09:03:04;;;;;;;18.90;9.40;;;;;;;3.95;70.65;101806.88;5042211;28;20406;-77
2022/02/12 09:05:30;;;;;;;13.93;8.97;;;;;;;3.84;70.78;101803.72;5033431;28;20867;-78
2022/02/12 09:07:55;;;;;;;12.70;8.57;;;;;;;3.93;70.48;101802.69;5034280;28;20396;-78
2022/02/12 09:10:20;;;;;;;17.17;9.13;;;;;;;4.53;68.73;101797.72;5043590;28;20468;-77
2022/02/12 09:12:46;;;;;;;17.37;8.67;;;;;;;4.29;68.97;101795.09;5038750;28;20877;-77
2022/02/12 09:15:11;;;;;;;18.37;9.17;;;;;;;4.33;69.50;101789.22;5032479;28;20537;-78
2022/02/12 09:17:36;;;;;;;13.17;7.83;;;;;;;4.53;68.52;101789.66;5048780;28;20389;-78
2022/02/12 09:20:02;;;;;;;12.97;7.60;;;;;;;4.97;67.25;101782.72;5036469;28;20395;-78
2022/02/12 09:22:27;;;;;;;12.80;7.30;;;;;;;5.09;66.02;101783.19;5045118;28;20754;-77
2022/02/12 09:24:52;;;;;;;15.13;7.50;;;;;;;4.84;66.78;101784.34;5038263;28;20443;-78
2022/02/12 09:27:18;;;;;;;17.87;8.33;;;;;;;4.74;67.15;101781.03;5037188;28;20403;-77
2022/02/12 09:29:43;;;;;;;15.60;7.47;;;;;;;4.62;67.48;101778.72;5050589;28;20398;-77
2022/02/12 09:32:08;;;;;;;12.47;6.43;;;;;;;4.92;67.21;101773.53;5045663;28;20426;-78
2022/02/12 09:34:34;;;;;;;15.05;7.30;;;;;;;5.27;66.16;101772.97;5042760;28;20876;-78
2022/02/12 09:36:59;;;;;;;18.13;7.28;;;;;;;5.50;65.58;101773.00;5041822;28;20488;-77
2022/02/12 09:39:24;;;;;;;13.67;6.37;;;;;;;5.50;64.25;101773.81;5036482;28;20441;-78
2022/02/12 09:41:50;;;;;;;11.47;6.63;;;;;;;5.84;64.22;101769.84;5032191;28;20403;-77
2022/02/12 09:44:16;;;;;;;10.70;6.35;;;;;;;5.97;63.10;101768.25;5032026;28;20461;-78
2022/02/12 09:47:07;;;;;;;14.00;7.17;;;;;;;7.06;60.97;101773.66;5034227;28;20387;-78
2022/02/12 09:49:33;;;;;;;9.75;6.70;;;;;;;8.20;57.63;101759.97;5036190;28;20951;-78
2022/02/12 09:52:03;;;;;;;10.50;7.53;;;;;;;9.29;53.86;101755.47;5048507;28;20563;-77
2022/02/12 09:54:30;;;;;;;12.63;6.53;;;;;;;9.74;52.62;101760.16;5042674;28;20424;-78
2022/02/12 09:56:56;;;;;;;13.95;6.88;;;;;;;9.37;53.20;101758.84;5037630;28;20411;-78
2022/02/12 09:59:21;;;;;;;13.77;6.63;;;;;;;8.82;53.90;101762.63;5032035;28;20415;-78
2022/02/12 10:01:46;;;;;;;8.98;5.88;;;;;;;8.50;54.66;101757.06;5039311;28;20425;-77
2022/02/12 10:04:17;;;;;;;12.73;6.83;;;;;;;8.26;54.96;101756.50;5038094;28;20813;-78
2022/02/12 10:06:45;;;;;;;11.95;6.05;;;;;;;8.41;54.97;101760.97;5034935;28;20516;-78
2022/02/12 10:09:12;;;;;;;11.95;6.03;;;;;;;9.23;53.18;101754.44;5033211;28;20401;-77
2022/02/12 10:11:42;;;;;;;10.98;5.70;;;;;;;8.98;52.59;101749.78;5031707;28;20399;-78
2022/02/12 10:14:09;;;;;;;11.82;6.60;;;;;;;9.95;51.16;101750.13;5043051;28;20399;-78
2022/02/12 10:16:57;;;;;;;12.85;5.72;;;;;;;10.78;48.97;101752.03;5034201;28;20896;-78
2022/02/12 10:19:38;;;;;;;14.45;6.97;;;;;;;11.13;47.08;101747.09;5033426;28;20411;-78
2022/02/12 10:22:15;;;;;;;10.40;5.40;;;;;;;12.41;44.15;101743.78;5048325;28;20738;-78
2022/02/12 10:24:54;;;;;;;12.20;5.93;;;;;;;12.25;45.14;101739.72;5032194;28;20489;-79
2022/02/12 10:27:23;;;;;;;9.70;5.70;;;;;;;13.23;43.47;101737.75;5037256;28;20401;-78
2022/02/12 10:29:49;;;;;;;10.57;6.38;;;;;;;14.32;40.69;101731.72;5039884;28;20399;-78
2022/02/12 10:32:18;;;;;;;13.85;5.50;;;;;;;13.68;40.92;101719.03;5034228;28;20413;-79
2022/02/12 10:34:45;;;;;;;10.60;5.75;;;;;;;13.42;41.52;101716.72;5033147;28;20411;-80
2022/02/12 10:37:13;;;;;;;11.73;6.07;;;;;;;14.09;40.95;101709.09;5033166;28;20403;-78
2022/02/12 10:39:49;;;;;;;10.35;5.47;;;;;;;13.38;41.20;101710.06;5033852;28;20451;-78
2022/02/12 10:42:18;;;;;;;14.95;5.93;;;;;;;13.57;40.71;101708.13;5031451;28;20499;-78
2022/02/12 10:44:45;;;;;;;11.23;6.18;;;;;;;13.91;39.71;101697.25;5041236;28;20810;-79
2022/02/12 10:47:13;;;;;;;8.48;5.50;;;;;;;13.57;39.95;101697.22;5032906;28;20409;-78
2022/02/12 10:49:39;;;;;;;13.02;6.80;;;;;;;11.84;43.54;101698.78;5030953;28;20415;-79
2022/02/12 10:52:05;;;;;;;10.20;5.80;;;;;;;10.17;47.53;101690.13;5048017;28;20477;-79
2022/02/12 10:54:39;;;;;;;12.70;6.17;;;;;;;8.97;50.41;101678.66;5036145;28;20813;-78
2022/02/12 10:57:08;;;;;;;11.30;6.65;;;;;;;8.13;53.42;101685.38;5041833;28;20387;-78
2022/02/12 10:59:36;;;;;;;16.15;6.65;;;;;;;7.70;54.84;101682.81;5033027;28;20417;-77
2022/02/12 11:02:06;;;;;;;14.57;8.07;;;;;;;7.44;56.33;101682.59;5035851;28;20502;-77
2022/02/12 11:04:33;;;;;;;12.82;6.20;;;;;;;7.50;57.11;101675.59;5040479;28;20456;-77
2022/02/12 11:07:02;;;;;;;12.50;5.85;;;;;;;7.12;56.01;101669.63;5040626;28;20953;-78
2022/02/12 11:09:29;;;;;;;13.48;7.45;;;;;;;7.18;56.82;101663.47;5029519;28;20450;-78
2022/02/12 11:11:54;;;;;;;11.60;6.03;;;;;;;7.31;57.17;101656.34;5032590;28;20767;-77
2022/02/12 11:14:22;;;;;;;12.90;5.53;;;;;;;7.30;57.30;101651.16;5037024;28;20469;-78
2022/02/12 11:16:47;;;;;;;12.85;6.55;;;;;;;7.35;57.20;101650.53;5042603;28;20881;-78
2022/02/12 11:19:14;;;;;;;12.93;6.22;;;;;;;7.02;56.92;101651.09;5040168;28;20416;-77
2022/02/12 11:21:39;;;;;;;12.30;6.10;;;;;;;7.06;57.75;101640.75;5041510;28;20418;-77
2022/02/12 11:24:08;;;;;;;11.43;6.13;;;;;;;6.93;57.96;101638.78;5046838;28;20405;-79
2022/02/12 11:26:44;;;;;;;16.88;6.43;;;;;;;6.98;57.52;101638.22;5050492;28;20473;-77
2022/02/12 11:29:28;;;;;;;16.30;6.97;;;;;;;7.00;58.24;101623.50;5046745;28;20483;-77